createdAt,value
2023-02-14T00:00:54.893Z,25.30
2023-02-14T00:04:00.596Z,25.70
2023-02-14T00:07:03.558Z,26.00
2023-02-14T00:10:09.475Z,24.50
2023-02-14T00:13:12.403Z,25.93
2023-02-14T00:16:14.545Z,26.93
2023-02-14T00:19:19.303Z,27.53
2023-02-14T00:22:22.250Z,22.77
2023-02-14T00:25:26.671Z,28.10
2023-02-14T00:28:29.633Z,26.20
2023-02-14T00:31:33.017Z,28.23
2023-02-14T00:34:36.480Z,26.80
2023-02-14T00:37:39.497Z,26.77
2023-02-14T00:40:43.803Z,26.90
2023-02-14T00:43:47.564Z,25.80
2023-02-14T00:46:50.553Z,23.93
2023-02-14T00:49:53.571Z,24.17
2023-02-14T00:52:56.593Z,24.47
2023-02-14T00:56:00.939Z,24.87
2023-02-14T00:59:04.004Z,27.50
2023-02-14T01:02:06.965Z,24.50
2023-02-14T01:05:09.943Z,25.20
2023-02-14T01:08:12.900Z,23.50
2023-02-14T01:11:20.357Z,24.47
2023-02-14T01:14:23.309Z,27.90
2023-02-14T01:17:26.364Z,26.63
2023-02-14T01:20:29.453Z,23.30
2023-02-14T01:23:32.389Z,24.43
2023-02-14T01:26:37.074Z,26.47
2023-02-14T01:29:40.031Z,27.93
2023-02-14T01:32:43.248Z,26.43
2023-02-14T01:35:46.215Z,29.27
2023-02-14T01:38:51.558Z,25.60
2023-02-14T01:41:56.581Z,28.47
2023-02-14T01:45:03.426Z,25.40
2023-02-14T01:48:06.429Z,25.47
2023-02-14T01:51:09.510Z,27.87
2023-02-14T01:54:13.552Z,24.13
2023-02-14T01:57:20.198Z,26.77
2023-02-14T02:00:40.872Z,25.33
2023-02-14T02:03:48.158Z,26.60
2023-02-14T02:06:55.001Z,28.23
2023-02-14T02:10:01.555Z,27.13
2023-02-14T02:13:08.880Z,28.23
2023-02-14T02:16:36.403Z,29.97
2023-02-14T02:20:24.080Z,30.27
2023-02-14T02:23:59.943Z,26.20
2023-02-14T02:27:46.320Z,24.50
2023-02-14T02:31:27.811Z,29.60
2023-02-14T02:34:57.529Z,27.77
2023-02-14T02:38:12.901Z,26.13
2023-02-14T02:41:22.879Z,26.23
2023-02-14T02:44:35.090Z,24.47
2023-02-14T02:47:43.852Z,28.10
2023-02-14T02:51:08.193Z,29.17
2023-02-14T02:54:17.582Z,29.13
2023-02-14T02:57:26.720Z,27.50
2023-02-14T03:00:31.169Z,27.47
2023-02-14T03:03:53.788Z,26.33
2023-02-14T03:06:57.363Z,27.87
2023-02-14T03:10:03.831Z,27.07
2023-02-14T03:13:39.810Z,28.27
2023-02-14T03:17:00.896Z,28.83
2023-02-14T03:20:16.614Z,31.53
2023-02-14T03:23:24.452Z,30.53
2023-02-14T03:26:36.398Z,25.57
2023-02-14T03:29:50.671Z,29.47
2023-02-14T03:33:00.634Z,29.70
2023-02-14T03:36:09.804Z,31.23
2023-02-14T03:39:20.874Z,27.80
2023-02-14T03:42:28.472Z,34.03
2023-02-14T03:45:35.602Z,27.03
2023-02-14T03:48:41.174Z,30.30
2023-02-14T03:51:49.175Z,30.70
2023-02-14T03:54:55.716Z,28.47
2023-02-14T03:58:07.958Z,31.27
2023-02-14T04:01:15.768Z,28.77
2023-02-14T04:04:22.589Z,31.27
2023-02-14T04:07:25.946Z,31.33
2023-02-14T04:10:29.021Z,34.00
2023-02-14T04:13:33.646Z,29.10
2023-02-14T04:16:56.727Z,30.83
2023-02-14T04:19:58.815Z,35.57
2023-02-14T04:23:03.448Z,30.87
2023-02-14T04:26:06.758Z,32.13
2023-02-14T04:29:11.240Z,31.00
2023-02-14T04:32:16.298Z,31.23
2023-02-14T04:35:19.409Z,34.70
2023-02-14T04:38:22.418Z,29.23
2023-02-14T04:41:25.337Z,28.43
2023-02-14T04:44:29.667Z,30.10
2023-02-14T04:47:32.748Z,31.87
2023-02-14T04:50:35.706Z,31.63
2023-02-14T04:53:40.298Z,29.10
2023-02-14T04:56:43.562Z,26.00
2023-02-14T04:59:47.873Z,30.30
2023-02-14T05:02:51.030Z,32.50
2023-02-14T05:05:53.996Z,33.23
2023-02-14T05:08:57.114Z,35.60
2023-02-14T05:12:00.041Z,32.27
2023-02-14T05:15:04.674Z,29.93
2023-02-14T05:18:07.654Z,29.33
2023-02-14T05:21:10.807Z,34.77
2023-02-14T05:24:13.825Z,32.63
2023-02-14T05:27:16.950Z,34.27
2023-02-14T05:30:26.454Z,32.07
2023-02-14T05:33:29.908Z,28.43
2023-02-14T05:36:32.894Z,29.27
2023-02-14T05:39:35.818Z,30.50
2023-02-14T05:42:38.735Z,33.57
2023-02-14T05:45:43.060Z,30.83
2023-02-14T05:48:46.363Z,30.50
2023-02-14T05:51:49.290Z,33.33
2023-02-14T05:54:52.321Z,30.83
2023-02-14T05:57:55.348Z,27.77
2023-02-14T06:01:00.689Z,33.00
2023-02-14T06:04:03.957Z,29.37
2023-02-14T06:07:06.922Z,29.73
2023-02-14T06:10:10.957Z,33.33
2023-02-14T06:13:13.912Z,29.60
2023-02-14T06:16:18.307Z,31.33
2023-02-14T06:19:21.440Z,29.70
2023-02-14T06:22:24.354Z,36.50
2023-02-14T06:25:27.484Z,31.90
2023-02-14T06:28:30.408Z,27.70
2023-02-14T06:31:35.884Z,30.87
2023-02-14T06:34:39.855Z,28.67
2023-02-14T06:37:44.230Z,28.23
2023-02-14T06:40:47.253Z,26.97
2023-02-14T06:43:50.281Z,29.37
2023-02-14T06:46:54.562Z,28.17
2023-02-14T06:49:59.853Z,30.77
2023-02-14T06:53:02.807Z,30.13
2023-02-14T06:56:06.667Z,26.63
2023-02-14T06:59:09.625Z,29.07
2023-02-14T07:02:13.962Z,30.50
2023-02-14T07:05:18.875Z,29.77
2023-02-14T07:08:22.244Z,25.40
2023-02-14T07:11:25.774Z,31.13
2023-02-14T07:14:28.755Z,30.10
2023-02-14T07:17:33.034Z,30.63
2023-02-14T07:20:36.071Z,29.73
2023-02-14T07:23:38.989Z,28.03
2023-02-14T07:26:41.976Z,25.70
2023-02-14T07:29:45.196Z,30.20
2023-02-14T07:32:49.455Z,28.47
2023-02-14T07:35:52.393Z,28.07
2023-02-14T07:38:56.869Z,24.30
2023-02-14T07:41:59.860Z,25.80
2023-02-14T07:45:19.379Z,28.57
2023-02-14T07:48:25.266Z,24.77
2023-02-14T07:51:28.307Z,25.60
2023-02-14T07:54:31.428Z,24.70
2023-02-14T07:57:34.583Z,28.10
2023-02-14T08:00:37.532Z,23.83
2023-02-14T08:03:44.366Z,26.27
2023-02-14T08:06:47.324Z,27.03
2023-02-14T08:09:50.364Z,23.80
2023-02-14T08:13:03.472Z,23.57
2023-02-14T08:16:07.556Z,26.97
2023-02-14T08:19:12.136Z,25.70
2023-02-14T08:22:15.083Z,24.70
2023-02-14T08:25:19.418Z,24.57
2023-02-14T08:28:22.688Z,23.30
2023-02-14T08:31:35.035Z,24.40
2023-02-14T08:34:40.741Z,22.80
2023-02-14T08:37:43.729Z,20.60
2023-02-14T08:40:46.878Z,19.27
2023-02-14T08:43:50.623Z,19.23
2023-02-14T08:46:54.880Z,19.83
2023-02-14T08:49:59.209Z,19.80
2023-02-14T08:53:02.303Z,19.63
2023-02-14T08:56:06.105Z,20.10
2023-02-14T08:59:09.208Z,22.17
2023-02-14T09:02:13.874Z,19.30
2023-02-14T09:05:18.386Z,22.67
2023-02-14T09:08:21.816Z,19.40
2023-02-14T09:11:26.086Z,18.73
2023-02-14T09:14:31.830Z,17.50
2023-02-14T09:17:35.189Z,16.50
2023-02-14T09:20:39.737Z,18.80
2023-02-14T09:23:43.064Z,18.67
2023-02-14T09:26:46.406Z,17.60
2023-02-14T09:29:49.340Z,18.30
2023-02-14T09:32:53.425Z,18.50
2023-02-14T09:36:13.948Z,16.67
2023-02-14T09:39:17.079Z,18.17
2023-02-14T09:42:32.429Z,18.07
2023-02-14T09:45:36.010Z,18.97
2023-02-14T09:48:42.344Z,16.73
2023-02-14T09:51:51.230Z,15.33
2023-02-14T09:54:57.510Z,17.03
2023-02-14T09:58:08.744Z,19.80
2023-02-14T10:01:17.861Z,15.70
2023-02-14T10:04:29.631Z,16.93
2023-02-14T10:07:44.761Z,15.63
2023-02-14T10:10:54.102Z,17.77
2023-02-14T10:14:02.696Z,16.87
2023-02-14T10:17:10.896Z,17.83
2023-02-14T10:20:23.149Z,16.47
2023-02-14T10:23:32.849Z,18.10
2023-02-14T10:26:38.740Z,17.37
2023-02-14T10:29:42.784Z,18.10
2023-02-14T10:32:48.681Z,16.93
2023-02-14T10:35:58.721Z,18.57
2023-02-14T10:39:17.828Z,17.10
2023-02-14T10:42:30.590Z,18.93
2023-02-14T10:45:41.736Z,16.63
2023-02-14T10:48:57.621Z,17.17
2023-02-14T10:52:08.048Z,19.70
2023-02-14T10:55:31.540Z,17.37
2023-02-14T10:58:40.731Z,17.10
2023-02-14T11:01:44.754Z,18.83
2023-02-14T11:04:48.563Z,18.07
2023-02-14T11:07:51.894Z,19.17
2023-02-14T11:11:01.857Z,18.93
2023-02-14T11:14:24.147Z,18.93
2023-02-14T11:17:30.182Z,19.27
2023-02-14T11:20:33.188Z,21.23
2023-02-14T11:23:38.703Z,19.37
2023-02-14T11:26:48.280Z,16.30
2023-02-14T11:29:53.014Z,17.93
2023-02-14T11:32:56.418Z,17.70
2023-02-14T11:36:00.650Z,19.23
2023-02-14T11:39:08.730Z,20.50
2023-02-14T11:42:13.847Z,18.10
2023-02-14T11:45:33.860Z,20.37
2023-02-14T11:48:38.999Z,17.83
2023-02-14T11:51:46.247Z,20.83
2023-02-14T11:54:50.205Z,18.07
2023-02-14T11:57:56.090Z,15.30
2023-02-14T12:01:00.053Z,17.27
2023-02-14T12:04:07.427Z,16.57
2023-02-14T12:07:20.024Z,17.83
2023-02-14T12:10:26.267Z,17.53
2023-02-14T12:13:33.396Z,16.10
2023-02-14T12:16:43.968Z,17.80
2023-02-14T12:19:52.703Z,17.73
2023-02-14T12:23:02.320Z,17.07
2023-02-14T12:26:13.877Z,20.60
2023-02-14T12:29:26.187Z,17.20
2023-02-14T12:32:31.047Z,15.97
2023-02-14T12:35:44.371Z,18.23
2023-02-14T12:38:56.768Z,13.30
2023-02-14T12:42:12.662Z,16.97
2023-02-14T12:45:26.170Z,14.00
2023-02-14T12:48:42.135Z,14.80
2023-02-14T12:51:51.073Z,15.67
2023-02-14T12:55:12.441Z,15.40
2023-02-14T12:58:28.859Z,19.90
2023-02-14T13:02:00.424Z,18.27
2023-02-14T13:05:13.985Z,18.00
2023-02-14T13:08:28.337Z,16.90
2023-02-14T13:11:40.628Z,16.27
2023-02-14T13:14:58.042Z,16.47
2023-02-14T13:18:12.011Z,15.80
2023-02-14T13:21:18.638Z,17.53
2023-02-14T13:24:25.506Z,17.23
2023-02-14T13:27:32.981Z,16.03
2023-02-14T13:30:38.599Z,17.67
2023-02-14T13:33:49.648Z,18.17
2023-02-14T13:36:53.311Z,16.50
2023-02-14T13:39:59.177Z,14.63
2023-02-14T13:43:02.818Z,14.67
2023-02-14T13:46:06.775Z,14.90
2023-02-14T13:49:26.078Z,15.30
2023-02-14T13:52:42.913Z,14.57
2023-02-14T13:55:48.776Z,17.03
2023-02-14T13:58:54.302Z,15.03
2023-02-14T14:02:17.492Z,16.23
2023-02-14T14:05:53.985Z,14.07
2023-02-14T14:08:58.394Z,13.90
2023-02-14T14:12:01.591Z,14.47
2023-02-14T14:15:16.794Z,15.57
2023-02-14T14:18:39.975Z,16.17
2023-02-14T14:21:44.583Z,15.57
2023-02-14T14:25:00.555Z,16.33
2023-02-14T14:28:11.201Z,14.27
2023-02-14T14:31:15.064Z,15.20
2023-02-14T14:34:20.340Z,16.20
2023-02-14T14:37:26.057Z,18.87
2023-02-14T14:40:32.506Z,19.03
2023-02-14T14:43:37.277Z,19.13
2023-02-14T14:46:40.260Z,17.67
2023-02-14T14:49:43.236Z,19.07
2023-02-14T14:52:49.125Z,18.37
2023-02-14T14:55:54.817Z,16.80
2023-02-14T14:58:58.769Z,19.20
2023-02-14T15:02:02.086Z,17.87
2023-02-14T15:05:26.143Z,16.83
2023-02-14T15:08:33.828Z,16.03
2023-02-14T15:11:56.432Z,18.20
2023-02-14T15:14:59.522Z,17.40
2023-02-14T15:18:06.467Z,19.07
2023-02-14T15:21:09.625Z,20.83
2023-02-14T15:24:17.213Z,19.80
2023-02-14T15:27:23.371Z,16.47
2023-02-14T15:30:33.801Z,18.33
2023-02-14T15:33:37.624Z,18.50
2023-02-14T15:36:52.148Z,19.47
2023-02-14T15:39:57.092Z,16.13
2023-02-14T15:43:14.615Z,17.10
2023-02-14T15:46:27.272Z,17.00
2023-02-14T15:49:35.505Z,17.63
2023-02-14T15:52:41.247Z,16.90
2023-02-14T15:55:44.636Z,18.43
2023-02-14T15:58:49.702Z,17.10
2023-02-14T16:01:55.709Z,16.70
2023-02-14T16:05:05.466Z,19.67
2023-02-14T16:08:26.504Z,16.00
2023-02-14T16:11:32.305Z,17.23
2023-02-14T16:14:40.940Z,18.43
2023-02-14T16:17:45.307Z,15.87
2023-02-14T16:20:51.172Z,17.90
2023-02-14T16:24:13.462Z,15.30
2023-02-14T16:27:16.429Z,17.67
2023-02-14T16:30:21.742Z,16.47
2023-02-14T16:33:27.948Z,17.47
2023-02-14T16:36:32.608Z,16.27
2023-02-14T16:39:36.316Z,18.60
2023-02-14T16:42:40.475Z,16.43
2023-02-14T16:45:45.493Z,20.30
2023-02-14T16:48:52.016Z,17.07
2023-02-14T16:51:55.748Z,17.03
2023-02-14T16:54:58.770Z,14.67
2023-02-14T16:58:02.582Z,20.77
2023-02-14T17:01:07.028Z,17.00
2023-02-14T17:04:10.082Z,15.97
2023-02-14T17:07:15.453Z,18.53
2023-02-14T17:10:20.618Z,19.33
2023-02-14T17:13:27.664Z,20.57
2023-02-14T17:16:33.364Z,19.97
2023-02-14T17:19:36.411Z,19.93
2023-02-14T17:22:39.460Z,20.67
2023-02-14T17:25:42.462Z,18.57
2023-02-14T17:28:46.391Z,21.43
2023-02-14T17:31:50.795Z,19.07
2023-02-14T17:34:54.025Z,20.40
2023-02-14T17:37:57.006Z,20.07
2023-02-14T17:41:00.270Z,19.17
2023-02-14T17:44:05.579Z,21.73
2023-02-14T17:47:09.911Z,21.83
2023-02-14T17:50:14.614Z,21.80
2023-02-14T17:53:18.776Z,19.77
2023-02-14T17:56:23.822Z,19.53
2023-02-14T17:59:26.784Z,19.87
2023-02-14T18:02:31.137Z,21.50
2023-02-14T18:05:37.149Z,20.53
2023-02-14T18:08:43.240Z,22.43
2023-02-14T18:11:46.705Z,22.40
2023-02-14T18:14:50.316Z,17.83
2023-02-14T18:17:54.597Z,23.53
2023-02-14T18:20:59.225Z,21.53
2023-02-14T18:24:02.417Z,24.00
2023-02-14T18:27:06.025Z,19.43
2023-02-14T18:30:10.822Z,22.87
2023-02-14T18:33:15.527Z,22.87
2023-02-14T18:36:20.909Z,20.73
2023-02-14T18:39:23.862Z,20.50
2023-02-14T18:42:26.840Z,25.53
2023-02-14T18:45:29.934Z,19.30
2023-02-14T18:48:34.676Z,20.30
2023-02-14T18:51:39.652Z,21.90
2023-02-14T18:54:42.704Z,22.00
2023-02-14T18:57:45.702Z,22.60
2023-02-14T19:00:48.721Z,25.80
2023-02-14T19:03:54.546Z,23.77
2023-02-14T19:06:57.551Z,23.33
2023-02-14T19:10:01.638Z,22.30
2023-02-14T19:13:04.587Z,23.60
2023-02-14T19:16:12.273Z,25.57
2023-02-14T19:19:16.757Z,23.47
2023-02-14T19:22:19.875Z,21.77
2023-02-14T19:25:22.807Z,25.10
2023-02-14T19:28:26.174Z,23.83
2023-02-14T19:31:29.682Z,26.40
2023-02-14T19:34:34.675Z,23.03
2023-02-14T19:37:37.689Z,24.33
2023-02-14T19:40:44.984Z,23.93
2023-02-14T19:43:49.101Z,24.90
2023-02-14T19:46:54.249Z,25.33
2023-02-14T19:49:58.616Z,24.10
2023-02-14T19:53:01.688Z,21.43
2023-02-14T19:56:04.795Z,24.93
2023-02-14T19:59:09.158Z,26.10
2023-02-14T20:02:15.685Z,26.53
2023-02-14T20:05:21.023Z,31.73
2023-02-14T20:08:23.984Z,26.23
2023-02-14T20:11:31.507Z,26.47
2023-02-14T20:14:50.280Z,26.77
2023-02-14T20:17:54.449Z,29.40
2023-02-14T20:21:04.892Z,25.27
2023-02-14T20:24:08.610Z,27.00
2023-02-14T20:27:11.876Z,25.47
2023-02-14T20:30:15.551Z,31.47
2023-02-14T20:33:18.620Z,28.67
2023-02-14T20:36:23.357Z,28.67
2023-02-14T20:39:29.908Z,29.20
2023-02-14T20:42:32.848Z,32.33
2023-02-14T20:45:35.891Z,28.83
2023-02-14T20:48:38.842Z,27.40
2023-02-14T20:51:43.296Z,28.43
2023-02-14T20:54:46.504Z,33.27
2023-02-14T20:57:49.486Z,29.57
2023-02-14T21:00:52.419Z,29.50
2023-02-14T21:03:55.508Z,30.53
2023-02-14T21:07:03.972Z,35.17
2023-02-14T21:10:08.223Z,33.87
2023-02-14T21:13:11.172Z,30.63
2023-02-14T21:16:16.645Z,30.97
2023-02-14T21:19:19.806Z,31.37
2023-02-14T21:22:24.429Z,31.47
2023-02-14T21:25:27.350Z,32.57
2023-02-14T21:28:30.500Z,33.87
2023-02-14T21:31:33.871Z,33.37
2023-02-14T21:34:36.917Z,30.87
2023-02-14T21:37:41.212Z,33.67
2023-02-14T21:40:44.158Z,34.00
2023-02-14T21:43:48.570Z,35.47
2023-02-14T21:46:51.511Z,34.97
2023-02-14T21:50:11.900Z,32.10
2023-02-14T21:53:16.203Z,34.10
2023-02-14T21:56:22.292Z,35.77
2023-02-14T21:59:25.425Z,31.00
2023-02-14T22:02:28.417Z,34.90
2023-02-14T22:05:31.396Z,33.93
2023-02-14T22:08:35.856Z,35.80
2023-02-14T22:11:38.854Z,37.27
2023-02-14T22:14:41.792Z,34.73
2023-02-14T22:17:45.010Z,36.17
2023-02-14T22:20:47.955Z,32.53
2023-02-14T22:23:52.368Z,39.83
2023-02-14T22:26:55.357Z,37.27
2023-02-14T22:29:58.421Z,34.90
2023-02-14T22:33:01.397Z,38.10
2023-02-14T22:36:04.769Z,36.40
2023-02-14T22:39:09.398Z,34.73
2023-02-14T22:42:12.389Z,35.53
2023-02-14T22:45:15.550Z,38.43
2023-02-14T22:48:18.733Z,42.70
2023-02-14T22:51:25.462Z,40.80
2023-02-14T22:54:30.375Z,41.10
2023-02-14T22:57:33.416Z,43.13
2023-02-14T23:00:36.387Z,41.93
2023-02-14T23:03:39.331Z,36.30
2023-02-14T23:06:42.299Z,38.27
2023-02-14T23:09:46.570Z,33.07
2023-02-14T23:13:07.121Z,34.53
2023-02-14T23:16:28.125Z,33.33
2023-02-14T23:19:50.062Z,30.20
2023-02-14T23:22:52.991Z,30.20
2023-02-14T23:25:57.306Z,32.17
2023-02-14T23:29:00.471Z,35.77
2023-02-14T23:32:03.768Z,32.60
2023-02-14T23:35:07.287Z,32.30
2023-02-14T23:38:10.260Z,31.83
2023-02-14T23:41:32.297Z,32.47
2023-02-14T23:44:36.248Z,32.67
2023-02-14T23:47:39.167Z,35.77
2023-02-14T23:50:42.301Z,34.17
2023-02-14T23:53:45.206Z,36.33
2023-02-14T23:56:49.550Z,37.83
2023-02-14T23:59:52.961Z,36.50
